sensor_id;sensor_type;location;lat;lon;timestamp;temperature;humidity
31639;DHT22;18248;51.522;7.020;2023-09-30T00:02:04;14.40;99.90
31639;DHT22;18248;51.522;7.020;2023-09-30T00:05:03;14.40;99.90
31639;DHT22;18248;51.522;7.020;2023-09-30T00:08:03;14.40;99.90
31639;DHT22;18248;51.522;7.020;2023-09-30T00:11:01;14.30;99.90
31639;DHT22;18248;51.522;7.020;2023-09-30T00:14:00;14.30;99.90
31639;DHT22;18248;51.522;7.020;2023-09-30T00:16:59;14.20;99.90
31639;DHT22;18248;51.522;7.020;2023-09-30T00:19:58;14.20;99.90
31639;DHT22;18248;51.522;7.020;2023-09-30T00:22:57;14.20;99.90
31639;DHT22;18248;51.522;7.020;2023-09-30T00:25:56;14.20;99.90
31639;DHT22;18248;51.522;7.020;2023-09-30T00:28:54;14.20;99.90
31639;DHT22;18248;51.522;7.020;2023-09-30T00:31:53;14.10;99.90
31639;DHT22;18248;51.522;7.020;2023-09-30T00:34:52;14.10;99.90
31639;DHT22;18248;51.522;7.020;2023-09-30T00:37:52;14.20;99.90
31639;DHT22;18248;51.522;7.020;2023-09-30T00:40:50;14.20;99.90
31639;DHT22;18248;51.522;7.020;2023-09-30T00:43:49;14.20;99.90
31639;DHT22;18248;51.522;7.020;2023-09-30T00:46:48;14.30;99.90
31639;DHT22;18248;51.522;7.020;2023-09-30T00:49:46;14.20;99.90
31639;DHT22;18248;51.522;7.020;2023-09-30T00:52:45;14.30;99.90
31639;DHT22;18248;51.522;7.020;2023-09-30T00:55:44;14.20;99.90
31639;DHT22;18248;51.522;7.020;2023-09-30T00:58:47;14.20;99.90
31639;DHT22;18248;51.522;7.020;2023-09-30T01:01:47;14.20;99.90
31639;DHT22;18248;51.522;7.020;2023-09-30T01:04:45;14.20;99.90
31639;DHT22;18248;51.522;7.020;2023-09-30T01:07:44;14.30;99.90
31639;DHT22;18248;51.522;7.020;2023-09-30T01:10:43;14.30;99.90
31639;DHT22;18248;51.522;7.020;2023-09-30T01:13:42;14.30;99.90
31639;DHT22;18248;51.522;7.020;2023-09-30T01:16:43;14.20;99.90
31639;DHT22;18248;51.522;7.020;2023-09-30T01:19:41;14.20;99.90
31639;DHT22;18248;51.522;7.020;2023-09-30T01:22:43;14.20;99.90
31639;DHT22;18248;51.522;7.020;2023-09-30T01:25:43;14.30;99.90
31639;DHT22;18248;51.522;7.020;2023-09-30T01:28:42;14.30;99.90
31639;DHT22;18248;51.522;7.020;2023-09-30T01:31:41;14.30;99.90
31639;DHT22;18248;51.522;7.020;2023-09-30T01:34:39;14.20;99.90
31639;DHT22;18248;51.522;7.020;2023-09-30T01:37:38;14.20;99.90
31639;DHT22;18248;51.522;7.020;2023-09-30T01:40:37;14.20;99.90
31639;DHT22;18248;51.522;7.020;2023-09-30T01:43:38;14.20;99.90
31639;DHT22;18248;51.522;7.020;2023-09-30T01:46:37;14.20;99.90
31639;DHT22;18248;51.522;7.020;2023-09-30T01:49:35;14.20;99.90
31639;DHT22;18248;51.522;7.020;2023-09-30T01:52:34;14.20;99.90
31639;DHT22;18248;51.522;7.020;2023-09-30T01:55:33;14.20;99.90
31639;DHT22;18248;51.522;7.020;2023-09-30T01:58:32;14.10;99.90
31639;DHT22;18248;51.522;7.020;2023-09-30T02:01:30;14.20;99.90
31639;DHT22;18248;51.522;7.020;2023-09-30T02:04:29;14.20;99.90
31639;DHT22;18248;51.522;7.020;2023-09-30T02:07:29;14.10;99.90
31639;DHT22;18248;51.522;7.020;2023-09-30T02:10:27;14.20;99.90
31639;DHT22;18248;51.522;7.020;2023-09-30T02:13:26;14.10;99.90
31639;DHT22;18248;51.522;7.020;2023-09-30T02:16:25;14.10;99.90
31639;DHT22;18248;51.522;7.020;2023-09-30T02:19:26;14.10;99.90
31639;DHT22;18248;51.522;7.020;2023-09-30T02:22:25;14.10;99.90
31639;DHT22;18248;51.522;7.020;2023-09-30T02:25:26;14.00;99.90
31639;DHT22;18248;51.522;7.020;2023-09-30T02:28:25;14.10;99.90
31639;DHT22;18248;51.522;7.020;2023-09-30T02:31:23;14.10;99.90
31639;DHT22;18248;51.522;7.020;2023-09-30T02:34:22;14.00;99.90
31639;DHT22;18248;51.522;7.020;2023-09-30T02:37:22;13.90;99.90
31639;DHT22;18248;51.522;7.020;2023-09-30T02:40:20;13.90;99.90
31639;DHT22;18248;51.522;7.020;2023-09-30T02:43:23;13.90;99.90
31639;DHT22;18248;51.522;7.020;2023-09-30T02:46:21;13.80;99.90
31639;DHT22;18248;51.522;7.020;2023-09-30T02:49:21;13.80;99.90
31639;DHT22;18248;51.522;7.020;2023-09-30T02:52:19;13.80;99.90
31639;DHT22;18248;51.522;7.020;2023-09-30T02:55:19;13.70;99.90
31639;DHT22;18248;51.522;7.020;2023-09-30T02:58:17;13.70;99.90
31639;DHT22;18248;51.522;7.020;2023-09-30T03:01:16;13.60;99.90
31639;DHT22;18248;51.522;7.020;2023-09-30T03:04:15;13.60;99.90
31639;DHT22;18248;51.522;7.020;2023-09-30T03:07:19;13.60;99.90
31639;DHT22;18248;51.522;7.020;2023-09-30T03:10:19;13.60;99.90
31639;DHT22;18248;51.522;7.020;2023-09-30T03:13:22;13.60;99.90
31639;DHT22;18248;51.522;7.020;2023-09-30T03:16:20;13.60;99.90
31639;DHT22;18248;51.522;7.020;2023-09-30T03:19:19;13.60;99.90
31639;DHT22;18248;51.522;7.020;2023-09-30T03:22:17;13.50;99.90
31639;DHT22;18248;51.522;7.020;2023-09-30T03:25:18;13.40;99.90
31639;DHT22;18248;51.522;7.020;2023-09-30T03:28:16;13.40;99.90
31639;DHT22;18248;51.522;7.020;2023-09-30T03:31:19;13.40;99.90
31639;DHT22;18248;51.522;7.020;2023-09-30T03:34:18;13.40;99.90
31639;DHT22;18248;51.522;7.020;2023-09-30T03:37:18;13.40;99.90
31639;DHT22;18248;51.522;7.020;2023-09-30T03:40:17;13.40;99.90
31639;DHT22;18248;51.522;7.020;2023-09-30T03:43:25;13.40;99.90
31639;DHT22;18248;51.522;7.020;2023-09-30T03:46:24;13.40;99.90
31639;DHT22;18248;51.522;7.020;2023-09-30T03:49:24;13.50;99.90
31639;DHT22;18248;51.522;7.020;2023-09-30T03:52:23;13.50;99.90
31639;DHT22;18248;51.522;7.020;2023-09-30T03:55:24;13.50;99.90
31639;DHT22;18248;51.522;7.020;2023-09-30T03:58:22;13.60;99.90
31639;DHT22;18248;51.522;7.020;2023-09-30T04:01:21;13.60;99.90
31639;DHT22;18248;51.522;7.020;2023-09-30T04:04:21;13.60;99.90
31639;DHT22;18248;51.522;7.020;2023-09-30T04:07:20;13.60;99.90
31639;DHT22;18248;51.522;7.020;2023-09-30T04:10:19;13.60;99.90
31639;DHT22;18248;51.522;7.020;2023-09-30T04:13:18;13.60;99.90
31639;DHT22;18248;51.522;7.020;2023-09-30T04:16:18;13.60;99.90
31639;DHT22;18248;51.522;7.020;2023-09-30T04:19:17;13.60;99.90
31639;DHT22;18248;51.522;7.020;2023-09-30T04:22:16;13.60;99.90
31639;DHT22;18248;51.522;7.020;2023-09-30T04:25:15;13.60;99.90
31639;DHT22;18248;51.522;7.020;2023-09-30T04:28:14;13.50;99.90
31639;DHT22;18248;51.522;7.020;2023-09-30T04:31:14;13.50;99.90
31639;DHT22;18248;51.522;7.020;2023-09-30T04:34:12;13.50;99.90
31639;DHT22;18248;51.522;7.020;2023-09-30T04:37:11;13.50;99.90
31639;DHT22;18248;51.522;7.020;2023-09-30T04:40:10;13.50;99.90
31639;DHT22;18248;51.522;7.020;2023-09-30T04:43:18;13.60;99.90
31639;DHT22;18248;51.522;7.020;2023-09-30T04:46:16;13.60;99.90
31639;DHT22;18248;51.522;7.020;2023-09-30T04:49:18;13.50;99.90
31639;DHT22;18248;51.522;7.020;2023-09-30T04:52:17;13.50;99.90
31639;DHT22;18248;51.522;7.020;2023-09-30T04:55:16;13.50;99.90
31639;DHT22;18248;51.522;7.020;2023-09-30T04:58:15;13.40;99.90
31639;DHT22;18248;51.522;7.020;2023-09-30T05:01:14;13.40;99.90
31639;DHT22;18248;51.522;7.020;2023-09-30T05:04:13;13.40;99.90
31639;DHT22;18248;51.522;7.020;2023-09-30T05:07:11;13.40;99.90
31639;DHT22;18248;51.522;7.020;2023-09-30T05:10:11;13.40;99.90
31639;DHT22;18248;51.522;7.020;2023-09-30T05:13:14;13.40;99.90
31639;DHT22;18248;51.522;7.020;2023-09-30T05:16:12;13.30;99.90
31639;DHT22;18248;51.522;7.020;2023-09-30T05:19:11;13.30;99.90
31639;DHT22;18248;51.522;7.020;2023-09-30T05:22:10;13.20;99.90
31639;DHT22;18248;51.522;7.020;2023-09-30T05:25:09;13.20;99.90
31639;DHT22;18248;51.522;7.020;2023-09-30T05:28:07;13.20;99.90
31639;DHT22;18248;51.522;7.020;2023-09-30T05:31:07;13.10;99.90
31639;DHT22;18248;51.522;7.020;2023-09-30T05:34:06;13.10;99.90
31639;DHT22;18248;51.522;7.020;2023-09-30T05:37:05;13.10;99.90
31639;DHT22;18248;51.522;7.020;2023-09-30T05:40:03;13.10;99.90
31639;DHT22;18248;51.522;7.020;2023-09-30T05:43:07;13.10;99.90
31639;DHT22;18248;51.522;7.020;2023-09-30T05:46:06;13.10;99.90
31639;DHT22;18248;51.522;7.020;2023-09-30T05:49:05;13.10;99.90
31639;DHT22;18248;51.522;7.020;2023-09-30T05:52:09;13.00;99.90
31639;DHT22;18248;51.522;7.020;2023-09-30T05:55:08;13.00;99.90
31639;DHT22;18248;51.522;7.020;2023-09-30T05:58:07;13.00;99.90
31639;DHT22;18248;51.522;7.020;2023-09-30T06:01:09;13.00;99.90
31639;DHT22;18248;51.522;7.020;2023-09-30T06:04:11;13.00;99.90
31639;DHT22;18248;51.522;7.020;2023-09-30T06:07:09;13.00;99.90
31639;DHT22;18248;51.522;7.020;2023-09-30T06:10:08;13.10;99.90
31639;DHT22;18248;51.522;7.020;2023-09-30T06:13:08;13.10;99.90
31639;DHT22;18248;51.522;7.020;2023-09-30T06:16:07;13.10;99.90
31639;DHT22;18248;51.522;7.020;2023-09-30T06:19:05;13.10;99.90
31639;DHT22;18248;51.522;7.020;2023-09-30T06:22:04;13.20;99.90
31639;DHT22;18248;51.522;7.020;2023-09-30T06:25:03;13.30;99.90
31639;DHT22;18248;51.522;7.020;2023-09-30T06:28:02;13.30;99.90
31639;DHT22;18248;51.522;7.020;2023-09-30T06:31:01;13.30;99.90
31639;DHT22;18248;51.522;7.020;2023-09-30T06:34:01;13.40;99.90
31639;DHT22;18248;51.522;7.020;2023-09-30T06:36:59;13.50;99.90
31639;DHT22;18248;51.522;7.020;2023-09-30T06:39:58;13.50;99.90
31639;DHT22;18248;51.522;7.020;2023-09-30T06:42:56;13.50;99.90
31639;DHT22;18248;51.522;7.020;2023-09-30T06:45:56;13.60;99.90
31639;DHT22;18248;51.522;7.020;2023-09-30T06:48:54;13.70;99.90
31639;DHT22;18248;51.522;7.020;2023-09-30T06:51:53;13.80;99.90
31639;DHT22;18248;51.522;7.020;2023-09-30T06:54:51;13.80;99.90
31639;DHT22;18248;51.522;7.020;2023-09-30T06:57:50;13.90;99.90
31639;DHT22;18248;51.522;7.020;2023-09-30T07:00:52;14.00;99.90
31639;DHT22;18248;51.522;7.020;2023-09-30T07:03:54;14.10;99.90
31639;DHT22;18248;51.522;7.020;2023-09-30T07:06:53;14.20;99.90
31639;DHT22;18248;51.522;7.020;2023-09-30T07:09:51;14.30;99.90
31639;DHT22;18248;51.522;7.020;2023-09-30T07:12:50;14.40;99.90
31639;DHT22;18248;51.522;7.020;2023-09-30T07:15:49;14.50;99.90
31639;DHT22;18248;51.522;7.020;2023-09-30T07:18:47;14.60;99.90
31639;DHT22;18248;51.522;7.020;2023-09-30T07:21:46;14.60;99.90
31639;DHT22;18248;51.522;7.020;2023-09-30T07:24:45;14.70;99.90
31639;DHT22;18248;51.522;7.020;2023-09-30T07:27:44;14.80;99.90
31639;DHT22;18248;51.522;7.020;2023-09-30T07:30:44;14.90;99.90
31639;DHT22;18248;51.522;7.020;2023-09-30T07:33:42;14.90;99.90
31639;DHT22;18248;51.522;7.020;2023-09-30T07:36:41;15.00;99.90
31639;DHT22;18248;51.522;7.020;2023-09-30T07:39:39;15.10;99.90
31639;DHT22;18248;51.522;7.020;2023-09-30T07:42:38;15.20;99.90
31639;DHT22;18248;51.522;7.020;2023-09-30T07:45:36;15.30;99.90
31639;DHT22;18248;51.522;7.020;2023-09-30T07:48:35;15.30;99.90
31639;DHT22;18248;51.522;7.020;2023-09-30T07:51:33;15.40;99.90
31639;DHT22;18248;51.522;7.020;2023-09-30T07:54:32;15.50;99.90
31639;DHT22;18248;51.522;7.020;2023-09-30T07:57:31;15.50;99.90
31639;DHT22;18248;51.522;7.020;2023-09-30T08:00:29;15.60;99.90
31639;DHT22;18248;51.522;7.020;2023-09-30T08:03:28;15.70;99.90
31639;DHT22;18248;51.522;7.020;2023-09-30T08:06:26;15.70;99.90
31639;DHT22;18248;51.522;7.020;2023-09-30T08:09:25;15.90;99.90
31639;DHT22;18248;51.522;7.020;2023-09-30T08:12:24;15.90;99.90
31639;DHT22;18248;51.522;7.020;2023-09-30T08:15:22;16.00;99.90
31639;DHT22;18248;51.522;7.020;2023-09-30T08:18:21;16.10;99.90
31639;DHT22;18248;51.522;7.020;2023-09-30T08:21:20;16.10;99.90
31639;DHT22;18248;51.522;7.020;2023-09-30T08:24:18;16.20;99.90
31639;DHT22;18248;51.522;7.020;2023-09-30T08:27:17;16.30;99.90
31639;DHT22;18248;51.522;7.020;2023-09-30T08:30:15;16.40;99.90
31639;DHT22;18248;51.522;7.020;2023-09-30T08:33:14;16.40;99.90
31639;DHT22;18248;51.522;7.020;2023-09-30T08:36:12;16.50;99.90
31639;DHT22;18248;51.522;7.020;2023-09-30T08:39:11;16.60;99.90
31639;DHT22;18248;51.522;7.020;2023-09-30T08:42:11;16.70;99.90
31639;DHT22;18248;51.522;7.020;2023-09-30T08:45:12;16.70;99.90
31639;DHT22;18248;51.522;7.020;2023-09-30T08:48:13;16.80;99.90
31639;DHT22;18248;51.522;7.020;2023-09-30T08:51:11;16.90;99.90
31639;DHT22;18248;51.522;7.020;2023-09-30T08:54:10;16.90;99.90
31639;DHT22;18248;51.522;7.020;2023-09-30T08:57:09;17.00;99.90
31639;DHT22;18248;51.522;7.020;2023-09-30T09:00:12;17.20;99.90
31639;DHT22;18248;51.522;7.020;2023-09-30T09:03:11;17.20;99.90
31639;DHT22;18248;51.522;7.020;2023-09-30T09:06:09;17.30;99.90
31639;DHT22;18248;51.522;7.020;2023-09-30T09:12:21;17.40;99.90
31639;DHT22;18248;51.522;7.020;2023-09-30T09:15:22;17.50;99.90
31639;DHT22;18248;51.522;7.020;2023-09-30T09:18:31;17.50;99.90
31639;DHT22;18248;51.522;7.020;2023-09-30T09:21:31;17.50;99.90
31639;DHT22;18248;51.522;7.020;2023-09-30T09:24:38;17.60;99.90
31639;DHT22;18248;51.522;7.020;2023-09-30T09:27:37;17.60;99.90
31639;DHT22;18248;51.522;7.020;2023-09-30T09:30:38;17.60;99.90
31639;DHT22;18248;51.522;7.020;2023-09-30T09:33:39;17.80;99.90
31639;DHT22;18248;51.522;7.020;2023-09-30T09:36:42;17.90;99.90
31639;DHT22;18248;51.522;7.020;2023-09-30T09:39:55;18.00;99.90
31639;DHT22;18248;51.522;7.020;2023-09-30T09:42:56;18.10;99.90
31639;DHT22;18248;51.522;7.020;2023-09-30T09:45:55;18.10;99.90
31639;DHT22;18248;51.522;7.020;2023-09-30T09:48:55;18.10;99.90
31639;DHT22;18248;51.522;7.020;2023-09-30T09:51:56;18.20;99.90
31639;DHT22;18248;51.522;7.020;2023-09-30T09:54:57;18.30;99.90
31639;DHT22;18248;51.522;7.020;2023-09-30T09:57:58;18.50;99.90
31639;DHT22;18248;51.522;7.020;2023-09-30T10:00:57;18.70;99.90
31639;DHT22;18248;51.522;7.020;2023-09-30T10:03:57;18.90;99.90
31639;DHT22;18248;51.522;7.020;2023-09-30T10:06:55;19.10;99.90
31639;DHT22;18248;51.522;7.020;2023-09-30T10:09:56;19.20;99.90
31639;DHT22;18248;51.522;7.020;2023-09-30T10:12:57;19.20;99.90
31639;DHT22;18248;51.522;7.020;2023-09-30T10:15:55;19.40;99.90
31639;DHT22;18248;51.522;7.020;2023-09-30T10:25:35;19.80;99.90
31639;DHT22;18248;51.522;7.020;2023-09-30T10:28:42;19.80;99.90
31639;DHT22;18248;51.522;7.020;2023-09-30T10:31:50;19.90;99.90
31639;DHT22;18248;51.522;7.020;2023-09-30T10:34:49;20.00;99.90
31639;DHT22;18248;51.522;7.020;2023-09-30T10:37:50;20.10;99.90
31639;DHT22;18248;51.522;7.020;2023-09-30T10:40:49;20.30;99.90
31639;DHT22;18248;51.522;7.020;2023-09-30T10:43:51;20.50;99.90
31639;DHT22;18248;51.522;7.020;2023-09-30T10:46:49;20.60;99.90
31639;DHT22;18248;51.522;7.020;2023-09-30T10:49:49;20.70;99.90
31639;DHT22;18248;51.522;7.020;2023-09-30T10:52:47;20.50;99.90
31639;DHT22;18248;51.522;7.020;2023-09-30T10:55:46;20.40;99.90
31639;DHT22;18248;51.522;7.020;2023-09-30T10:58:52;20.40;99.90
31639;DHT22;18248;51.522;7.020;2023-09-30T11:01:51;20.60;99.90
31639;DHT22;18248;51.522;7.020;2023-09-30T11:04:50;20.60;99.90
31639;DHT22;18248;51.522;7.020;2023-09-30T11:07:49;20.60;99.90
31639;DHT22;18248;51.522;7.020;2023-09-30T11:10:50;20.90;99.90
31639;DHT22;18248;51.522;7.020;2023-09-30T11:13:49;21.00;99.90
31639;DHT22;18248;51.522;7.020;2023-09-30T11:16:50;21.30;99.90
31639;DHT22;18248;51.522;7.020;2023-09-30T11:19:49;21.30;99.90
31639;DHT22;18248;51.522;7.020;2023-09-30T11:22:47;21.20;99.90
31639;DHT22;18248;51.522;7.020;2023-09-30T11:25:49;21.20;99.90
31639;DHT22;18248;51.522;7.020;2023-09-30T11:28:48;21.10;99.90
31639;DHT22;18248;51.522;7.020;2023-09-30T11:31:47;21.10;99.90
31639;DHT22;18248;51.522;7.020;2023-09-30T11:34:46;21.10;99.90
31639;DHT22;18248;51.522;7.020;2023-09-30T11:37:45;21.10;99.90
31639;DHT22;18248;51.522;7.020;2023-09-30T11:47:03;20.90;99.90
31639;DHT22;18248;51.522;7.020;2023-09-30T11:50:06;20.80;99.90
31639;DHT22;18248;51.522;7.020;2023-09-30T11:53:19;20.80;99.90
31639;DHT22;18248;51.522;7.020;2023-09-30T11:56:19;20.90;99.90
31639;DHT22;18248;51.522;7.020;2023-09-30T11:59:17;20.90;99.90
31639;DHT22;18248;51.522;7.020;2023-09-30T12:02:17;20.90;99.90
31639;DHT22;18248;51.522;7.020;2023-09-30T12:05:16;20.90;99.90
31639;DHT22;18248;51.522;7.020;2023-09-30T12:08:15;21.00;99.90
31639;DHT22;18248;51.522;7.020;2023-09-30T12:11:13;21.00;99.90
31639;DHT22;18248;51.522;7.020;2023-09-30T12:14:14;21.00;99.90
31639;DHT22;18248;51.522;7.020;2023-09-30T12:17:14;21.00;99.90
31639;DHT22;18248;51.522;7.020;2023-09-30T12:20:12;21.00;99.90
31639;DHT22;18248;51.522;7.020;2023-09-30T12:23:14;21.00;99.90
31639;DHT22;18248;51.522;7.020;2023-09-30T12:26:12;21.00;99.90
31639;DHT22;18248;51.522;7.020;2023-09-30T12:29:11;21.00;99.90
31639;DHT22;18248;51.522;7.020;2023-09-30T12:32:10;21.10;99.90
31639;DHT22;18248;51.522;7.020;2023-09-30T12:35:08;21.10;99.90
31639;DHT22;18248;51.522;7.020;2023-09-30T12:38:08;21.20;99.90
31639;DHT22;18248;51.522;7.020;2023-09-30T12:41:07;21.30;99.90
31639;DHT22;18248;51.522;7.020;2023-09-30T12:44:07;21.40;99.90
31639;DHT22;18248;51.522;7.020;2023-09-30T12:47:05;21.40;99.90
31639;DHT22;18248;51.522;7.020;2023-09-30T12:50:05;21.30;99.90
31639;DHT22;18248;51.522;7.020;2023-09-30T12:53:07;21.20;99.90
31639;DHT22;18248;51.522;7.020;2023-09-30T12:56:05;21.30;99.90
31639;DHT22;18248;51.522;7.020;2023-09-30T12:59:04;21.30;99.90
31639;DHT22;18248;51.522;7.020;2023-09-30T13:02:02;21.30;99.90
31639;DHT22;18248;51.522;7.020;2023-09-30T13:08:58;21.30;99.90
31639;DHT22;18248;51.522;7.020;2023-09-30T13:11:57;21.30;99.90
31639;DHT22;18248;51.522;7.020;2023-09-30T13:14:59;21.20;99.90
31639;DHT22;18248;51.522;7.020;2023-09-30T13:17:57;21.20;99.90
31639;DHT22;18248;51.522;7.020;2023-09-30T13:20:57;21.20;99.90
31639;DHT22;18248;51.522;7.020;2023-09-30T13:23:55;21.10;99.90
31639;DHT22;18248;51.522;7.020;2023-09-30T13:26:54;21.10;99.90
31639;DHT22;18248;51.522;7.020;2023-09-30T13:29:52;21.20;99.90
31639;DHT22;18248;51.522;7.020;2023-09-30T13:32:53;21.30;99.90
31639;DHT22;18248;51.522;7.020;2023-09-30T13:35:51;21.40;99.90
31639;DHT22;18248;51.522;7.020;2023-09-30T13:38:50;21.60;99.90
31639;DHT22;18248;51.522;7.020;2023-09-30T13:41:48;21.80;99.90
31639;DHT22;18248;51.522;7.020;2023-09-30T13:44:47;22.00;99.90
31639;DHT22;18248;51.522;7.020;2023-09-30T13:47:46;22.10;99.90
31639;DHT22;18248;51.522;7.020;2023-09-30T13:50:44;22.10;99.90
31639;DHT22;18248;51.522;7.020;2023-09-30T13:53:43;22.10;99.90
31639;DHT22;18248;51.522;7.020;2023-09-30T13:56:41;22.10;99.90
31639;DHT22;18248;51.522;7.020;2023-09-30T13:59:40;22.00;99.90
31639;DHT22;18248;51.522;7.020;2023-09-30T14:02:40;22.00;99.90
31639;DHT22;18248;51.522;7.020;2023-09-30T14:05:39;21.90;99.90
31639;DHT22;18248;51.522;7.020;2023-09-30T14:08:38;21.80;99.90
31639;DHT22;18248;51.522;7.020;2023-09-30T14:11:37;21.80;99.90
31639;DHT22;18248;51.522;7.020;2023-09-30T14:14:35;21.70;99.90
31639;DHT22;18248;51.522;7.020;2023-09-30T14:17:34;21.70;99.90
31639;DHT22;18248;51.522;7.020;2023-09-30T14:20:35;21.60;99.90
31639;DHT22;18248;51.522;7.020;2023-09-30T14:23:34;21.70;99.90
31639;DHT22;18248;51.522;7.020;2023-09-30T14:26:33;21.80;99.90
31639;DHT22;18248;51.522;7.020;2023-09-30T14:29:32;21.80;99.90
31639;DHT22;18248;51.522;7.020;2023-09-30T14:32:30;21.70;99.90
31639;DHT22;18248;51.522;7.020;2023-09-30T14:35:29;21.70;99.90
31639;DHT22;18248;51.522;7.020;2023-09-30T14:38:28;21.70;99.90
31639;DHT22;18248;51.522;7.020;2023-09-30T14:41:27;21.70;99.90
31639;DHT22;18248;51.522;7.020;2023-09-30T14:44:25;21.60;99.90
31639;DHT22;18248;51.522;7.020;2023-09-30T14:47:24;21.40;99.90
31639;DHT22;18248;51.522;7.020;2023-09-30T14:50:23;21.30;99.90
31639;DHT22;18248;51.522;7.020;2023-09-30T14:53:21;21.20;99.90
31639;DHT22;18248;51.522;7.020;2023-09-30T14:56:20;21.30;99.90
31639;DHT22;18248;51.522;7.020;2023-09-30T14:59:18;21.20;99.90
31639;DHT22;18248;51.522;7.020;2023-09-30T15:02:17;21.20;99.90
31639;DHT22;18248;51.522;7.020;2023-09-30T15:05:16;21.20;99.90
31639;DHT22;18248;51.522;7.020;2023-09-30T15:08:15;21.10;99.90
31639;DHT22;18248;51.522;7.020;2023-09-30T15:11:14;21.00;99.90
31639;DHT22;18248;51.522;7.020;2023-09-30T15:14:13;21.00;99.90
31639;DHT22;18248;51.522;7.020;2023-09-30T15:17:11;21.00;99.90
31639;DHT22;18248;51.522;7.020;2023-09-30T15:20:11;21.00;99.90
31639;DHT22;18248;51.522;7.020;2023-09-30T15:23:10;21.10;99.90
31639;DHT22;18248;51.522;7.020;2023-09-30T15:26:09;21.10;99.90
31639;DHT22;18248;51.522;7.020;2023-09-30T15:29:07;21.00;99.90
31639;DHT22;18248;51.522;7.020;2023-09-30T15:32:06;20.80;99.90
31639;DHT22;18248;51.522;7.020;2023-09-30T15:35:05;20.80;99.90
31639;DHT22;18248;51.522;7.020;2023-09-30T15:38:04;20.70;99.90
31639;DHT22;18248;51.522;7.020;2023-09-30T15:41:03;20.60;99.90
31639;DHT22;18248;51.522;7.020;2023-09-30T15:44:02;20.50;99.90
31639;DHT22;18248;51.522;7.020;2023-09-30T15:47:01;20.40;99.90
31639;DHT22;18248;51.522;7.020;2023-09-30T15:49:59;20.30;99.90
31639;DHT22;18248;51.522;7.020;2023-09-30T15:52:58;20.20;99.90
31639;DHT22;18248;51.522;7.020;2023-09-30T15:55:56;20.20;99.90
31639;DHT22;18248;51.522;7.020;2023-09-30T15:58:55;20.10;99.90
31639;DHT22;18248;51.522;7.020;2023-09-30T16:01:55;20.10;99.90
31639;DHT22;18248;51.522;7.020;2023-09-30T16:04:54;20.00;99.90
31639;DHT22;18248;51.522;7.020;2023-09-30T16:07:52;19.90;99.90
31639;DHT22;18248;51.522;7.020;2023-09-30T16:10:51;19.90;99.90
31639;DHT22;18248;51.522;7.020;2023-09-30T16:13:50;19.90;99.90
31639;DHT22;18248;51.522;7.020;2023-09-30T16:16:50;19.80;99.90
31639;DHT22;18248;51.522;7.020;2023-09-30T16:19:48;19.70;99.90
31639;DHT22;18248;51.522;7.020;2023-09-30T16:22:47;19.60;99.90
31639;DHT22;18248;51.522;7.020;2023-09-30T16:25:45;19.60;99.90
31639;DHT22;18248;51.522;7.020;2023-09-30T16:28:44;19.50;99.90
31639;DHT22;18248;51.522;7.020;2023-09-30T16:31:42;19.50;99.90
31639;DHT22;18248;51.522;7.020;2023-09-30T16:34:41;19.40;99.90
31639;DHT22;18248;51.522;7.020;2023-09-30T16:37:40;19.30;99.90
31639;DHT22;18248;51.522;7.020;2023-09-30T16:40:40;19.30;99.90
31639;DHT22;18248;51.522;7.020;2023-09-30T16:43:38;19.20;99.90
31639;DHT22;18248;51.522;7.020;2023-09-30T16:46:37;19.20;99.90
31639;DHT22;18248;51.522;7.020;2023-09-30T16:49:36;19.10;99.90
31639;DHT22;18248;51.522;7.020;2023-09-30T16:52:35;19.00;99.90
31639;DHT22;18248;51.522;7.020;2023-09-30T16:55:34;19.00;99.90
31639;DHT22;18248;51.522;7.020;2023-09-30T16:58:33;18.90;99.90
31639;DHT22;18248;51.522;7.020;2023-09-30T17:01:31;18.80;99.90
31639;DHT22;18248;51.522;7.020;2023-09-30T17:04:30;18.70;99.90
31639;DHT22;18248;51.522;7.020;2023-09-30T17:07:28;18.60;99.90
31639;DHT22;18248;51.522;7.020;2023-09-30T17:10:27;18.50;99.90
31639;DHT22;18248;51.522;7.020;2023-09-30T17:13:26;18.40;99.90
31639;DHT22;18248;51.522;7.020;2023-09-30T17:16:24;18.30;99.90
31639;DHT22;18248;51.522;7.020;2023-09-30T17:19:23;18.20;99.90
31639;DHT22;18248;51.522;7.020;2023-09-30T17:22:22;18.10;99.90
31639;DHT22;18248;51.522;7.020;2023-09-30T17:25:20;18.00;99.90
31639;DHT22;18248;51.522;7.020;2023-09-30T17:28:20;17.90;99.90
31639;DHT22;18248;51.522;7.020;2023-09-30T17:31:21;17.80;99.90
31639;DHT22;18248;51.522;7.020;2023-09-30T17:34:19;17.70;99.90
31639;DHT22;18248;51.522;7.020;2023-09-30T17:37:20;17.60;99.90
31639;DHT22;18248;51.522;7.020;2023-09-30T17:40:19;17.50;99.90
31639;DHT22;18248;51.522;7.020;2023-09-30T17:43:17;17.40;99.90
31639;DHT22;18248;51.522;7.020;2023-09-30T17:46:16;17.40;99.90
31639;DHT22;18248;51.522;7.020;2023-09-30T17:49:18;17.30;99.90
31639;DHT22;18248;51.522;7.020;2023-09-30T17:52:16;17.10;99.90
31639;DHT22;18248;51.522;7.020;2023-09-30T17:55:15;17.00;99.90
31639;DHT22;18248;51.522;7.020;2023-09-30T17:58:14;17.00;99.90
31639;DHT22;18248;51.522;7.020;2023-09-30T18:01:13;16.90;99.90
31639;DHT22;18248;51.522;7.020;2023-09-30T18:04:12;16.70;99.90
31639;DHT22;18248;51.522;7.020;2023-09-30T18:07:11;16.70;99.90
31639;DHT22;18248;51.522;7.020;2023-09-30T18:10:11;16.70;99.90
31639;DHT22;18248;51.522;7.020;2023-09-30T18:13:10;16.60;99.90
31639;DHT22;18248;51.522;7.020;2023-09-30T18:16:09;16.50;99.90
31639;DHT22;18248;51.522;7.020;2023-09-30T18:19:07;16.40;99.90
31639;DHT22;18248;51.522;7.020;2023-09-30T18:22:06;16.30;99.90
31639;DHT22;18248;51.522;7.020;2023-09-30T18:25:08;16.30;99.90
31639;DHT22;18248;51.522;7.020;2023-09-30T18:28:06;16.30;99.90
31639;DHT22;18248;51.522;7.020;2023-09-30T18:31:05;16.20;99.90
31639;DHT22;18248;51.522;7.020;2023-09-30T18:34:04;16.20;99.90
31639;DHT22;18248;51.522;7.020;2023-09-30T18:37:03;16.20;99.90
31639;DHT22;18248;51.522;7.020;2023-09-30T18:40:02;16.10;99.90
31639;DHT22;18248;51.522;7.020;2023-09-30T18:43:05;16.00;99.90
31639;DHT22;18248;51.522;7.020;2023-09-30T18:46:10;16.00;99.90
31639;DHT22;18248;51.522;7.020;2023-09-30T18:49:10;16.00;99.90
31639;DHT22;18248;51.522;7.020;2023-09-30T18:52:08;16.00;99.90
31639;DHT22;18248;51.522;7.020;2023-09-30T18:55:07;16.00;99.90
31639;DHT22;18248;51.522;7.020;2023-09-30T18:58:06;16.00;99.90
31639;DHT22;18248;51.522;7.020;2023-09-30T19:01:05;16.00;99.90
31639;DHT22;18248;51.522;7.020;2023-09-30T19:04:04;16.00;99.90
31639;DHT22;18248;51.522;7.020;2023-09-30T19:07:03;16.00;99.90
31639;DHT22;18248;51.522;7.020;2023-09-30T19:10:03;15.90;99.90
31639;DHT22;18248;51.522;7.020;2023-09-30T19:13:02;15.90;99.90